Time;durP1;ratioP1;P1;durP2;ratioP2;P2;SDS_P1;SDS_P2;PMS_P1;PMS_P2;Temp;Humidity;BMP_temperature;BMP_pressure;BME280_temperature;BME280_humidity;BME280_pressure;Samples;Min_cycle;Max_cycle;Signal;HPM_P1;HPM_P2
2022/06/28 00:01:14;;;;;;;2.33;2.13;;;14.10;99.90;;;;;;5019339;28;20582;-93
2022/06/28 00:03:42;;;;;;;3.55;2.80;;;14.10;99.90;;;;;;5020305;28;20319;-93
2022/06/28 00:06:07;;;;;;;2.78;2.58;;;14.00;99.90;;;;;;5020389;28;20053;-93
2022/06/28 00:08:33;;;;;;;4.20;2.15;;;14.00;99.90;;;;;;5019206;28;20041;-93
2022/06/28 00:10:59;;;;;;;3.38;2.47;;;14.00;99.90;;;;;;5018815;28;20275;-92
2022/06/28 00:13:25;;;;;;;2.63;2.17;;;13.90;99.90;;;;;;5017011;28;20049;-92
2022/06/28 00:16:06;;;;;;;2.10;1.95;;;13.90;99.90;;;;;;5019444;28;20076;-92
2022/06/28 00:18:39;;;;;;;2.40;1.85;;;13.90;99.90;;;;;;5019948;28;20539;-92
2022/06/28 00:21:06;;;;;;;7.88;2.70;;;13.90;99.90;;;;;;5017867;28;20045;-91
2022/06/28 00:23:33;;;;;;;2.83;2.45;;;13.80;99.90;;;;;;5023224;28;20033;-92
2022/06/28 00:25:59;;;;;;;3.63;2.55;;;13.80;99.90;;;;;;5020925;28;20038;-93
2022/06/28 00:28:25;;;;;;;2.78;2.50;;;13.80;99.90;;;;;;5023392;28;20057;-93
2022/06/28 00:30:51;;;;;;;8.35;1.83;;;13.80;99.90;;;;;;5022291;28;20048;-95
2022/06/28 00:33:16;;;;;;;4.10;2.60;;;13.70;99.90;;;;;;5023866;28;20038;-94
2022/06/28 00:35:42;;;;;;;5.40;3.00;;;13.70;99.90;;;;;;5022639;28;20048;-93
2022/06/28 00:38:08;;;;;;;2.95;2.40;;;13.70;99.90;;;;;;5023114;28;20375;-92
2022/06/28 00:40:49;;;;;;;3.13;2.70;;;13.70;99.90;;;;;;5022786;28;21007;-92
2022/06/28 00:43:16;;;;;;;2.80;2.60;;;13.70;99.90;;;;;;5022686;28;20037;-91
2022/06/28 00:45:43;;;;;;;2.65;2.45;;;13.70;99.90;;;;;;5023726;28;20243;-94
2022/06/28 00:48:12;;;;;;;2.75;2.55;;;13.70;99.90;;;;;;5006262;28;20091;-94
2022/06/28 00:50:38;;;;;;;4.43;2.80;;;13.70;99.90;;;;;;5023698;28;20060;-92
2022/06/28 00:53:10;;;;;;;2.55;2.38;;;13.70;99.90;;;;;;5022538;28;20049;-93
2022/06/28 00:55:36;;;;;;;4.90;2.85;;;13.70;99.90;;;;;;5022553;28;20124;-92
2022/06/28 00:58:03;;;;;;;2.22;2.13;;;13.70;99.90;;;;;;5022668;28;20435;-92
2022/06/28 01:00:31;;;;;;;5.60;2.85;;;13.70;99.90;;;;;;5023122;28;20336;-93
2022/06/28 01:02:57;;;;;;;3.45;2.72;;;13.70;99.90;;;;;;5023178;28;20049;-92
2022/06/28 01:05:23;;;;;;;2.40;2.20;;;13.70;99.90;;;;;;5023012;28;20047;-93
2022/06/28 01:07:48;;;;;;;3.08;2.03;;;13.70;99.90;;;;;;5022638;28;20129;-93
2022/06/28 01:10:14;;;;;;;7.90;2.78;;;13.60;99.90;;;;;;5021731;28;20045;-91
2022/06/28 01:12:40;;;;;;;3.10;2.38;;;13.60;99.90;;;;;;5013870;28;20096;-93
2022/06/28 01:15:06;;;;;;;2.28;2.08;;;13.60;99.90;;;;;;5021190;28;20050;-92
2022/06/28 01:17:32;;;;;;;5.75;2.92;;;13.70;99.90;;;;;;5022228;28;20046;-93
2022/06/28 01:19:58;;;;;;;2.45;2.25;;;13.60;99.90;;;;;;5022708;28;20435;-92
2022/06/28 01:22:27;;;;;;;5.03;2.85;;;13.60;99.90;;;;;;5022146;28;20029;-91
2022/06/28 01:24:53;;;;;;;5.28;2.60;;;13.60;99.90;;;;;;5022233;28;20318;-92
2022/06/28 01:27:19;;;;;;;3.42;2.13;;;13.60;99.90;;;;;;5021774;28;20037;-92
2022/06/28 01:29:45;;;;;;;3.03;2.40;;;13.60;99.90;;;;;;5022367;28;20404;-91
2022/06/28 01:32:13;;;;;;;3.85;2.10;;;13.60;99.90;;;;;;5022348;28;20045;-92
2022/06/28 01:34:39;;;;;;;2.53;2.10;;;13.60;99.90;;;;;;5021682;28;20129;-92
2022/06/28 01:37:05;;;;;;;3.50;2.80;;;13.50;99.90;;;;;;5022610;28;20120;-93
2022/06/28 01:39:31;;;;;;;4.75;3.03;;;13.50;99.90;;;;;;5020306;28;20133;-92
2022/06/28 01:41:56;;;;;;;2.08;1.88;;;13.60;99.90;;;;;;5020864;28;20312;-91
2022/06/28 01:44:22;;;;;;;6.07;2.97;;;13.50;99.90;;;;;;5021943;28;20496;-92
2022/06/28 01:46:48;;;;;;;2.60;2.38;;;13.50;99.90;;;;;;5020876;28;20037;-92
2022/06/28 01:49:14;;;;;;;5.05;2.63;;;13.50;99.90;;;;;;5022178;28;20048;-92
2022/06/28 01:51:39;;;;;;;7.15;2.05;;;13.50;99.90;;;;;;5020787;28;20045;-91
2022/06/28 01:54:05;;;;;;;1.70;1.60;;;13.40;99.90;;;;;;5021487;28;20041;-92
2022/06/28 01:56:31;;;;;;;3.90;2.85;;;13.40;99.90;;;;;;5020859;28;20113;-91
2022/06/28 01:58:57;;;;;;;2.30;2.10;;;13.40;99.90;;;;;;5021034;28;20034;-92
2022/06/28 02:01:23;;;;;;;2.75;1.48;;;13.40;99.90;;;;;;5022038;28;20040;-92
2022/06/28 02:03:49;;;;;;;4.68;2.35;;;13.50;99.90;;;;;;5021859;28;20037;-92
2022/06/28 02:06:15;;;;;;;3.53;2.25;;;13.50;99.90;;;;;;5021188;28;20068;-90
2022/06/28 02:08:40;;;;;;;3.67;2.67;;;13.50;99.90;;;;;;5021702;28;20480;-92
2022/06/28 02:11:06;;;;;;;3.92;2.50;;;13.50;99.90;;;;;;5019609;28;20548;-91
2022/06/28 02:13:32;;;;;;;1.95;1.80;;;13.50;99.90;;;;;;5017604;28;20061;-92
2022/06/28 02:15:58;;;;;;;3.55;1.98;;;13.50;99.90;;;;;;5019543;28;20076;-93
2022/06/28 02:18:23;;;;;;;5.93;2.65;;;13.50;99.90;;;;;;5021191;28;20080;-93
2022/06/28 02:20:49;;;;;;;2.88;1.83;;;13.50;99.90;;;;;;5021428;28;20081;-92
2022/06/28 02:23:15;;;;;;;1.95;1.85;;;13.50;99.90;;;;;;5021340;28;20217;-92
2022/06/28 02:25:40;;;;;;;13.40;2.60;;;13.40;99.90;;;;;;5020394;28;20128;-92
2022/06/28 02:28:06;;;;;;;3.88;2.40;;;13.40;99.90;;;;;;5021487;28;20427;-93
2022/06/28 02:30:32;;;;;;;2.33;2.13;;;13.40;99.90;;;;;;5021849;28;20715;-92
2022/06/28 02:32:57;;;;;;;4.57;2.83;;;13.40;99.90;;;;;;5021168;28;20068;-92
2022/06/28 02:40:51;;;;;;;2.53;2.08;;;13.40;99.90;;;;;;5020524;28;20100;-92
2022/06/28 02:43:17;;;;;;;3.25;2.63;;;13.30;99.90;;;;;;5020964;28;20041;-92
2022/06/28 02:45:42;;;;;;;2.08;1.48;;;13.30;99.90;;;;;;5019830;28;20301;-92
2022/06/28 02:48:08;;;;;;;2.08;1.85;;;13.30;99.90;;;;;;5021082;28;20041;-92
2022/06/28 02:50:34;;;;;;;3.10;1.75;;;13.30;99.90;;;;;;5020994;28;20037;-92
2022/06/28 02:53:01;;;;;;;6.47;1.60;;;13.30;99.90;;;;;;5020795;28;20052;-92
2022/06/28 02:55:27;;;;;;;2.13;1.88;;;13.30;99.90;;;;;;5020123;28;20038;-93
2022/06/28 02:57:53;;;;;;;5.38;1.70;;;13.30;99.90;;;;;;5020844;28;20125;-92
2022/06/28 03:00:19;;;;;;;1.50;1.40;;;13.30;99.90;;;;;;5020740;28;20124;-92
2022/06/28 03:02:46;;;;;;;1.77;1.52;;;13.40;99.90;;;;;;5018912;28;20107;-92
2022/06/28 03:05:14;;;;;;;3.40;2.22;;;13.30;99.90;;;;;;5021198;28;20037;-92
2022/06/28 03:07:40;;;;;;;5.55;2.47;;;13.30;99.90;;;;;;5021442;28;20210;-93
2022/06/28 03:10:07;;;;;;;2.70;1.08;;;13.30;99.90;;;;;;5018770;28;20236;-92
2022/06/28 03:12:32;;;;;;;1.90;1.67;;;13.30;99.90;;;;;;5020775;28;20058;-92
2022/06/28 03:14:58;;;;;;;1.95;1.83;;;13.30;99.90;;;;;;5019933;28;20496;-91
2022/06/28 03:17:23;;;;;;;3.35;1.73;;;13.30;99.90;;;;;;5020535;28;20041;-92
2022/06/28 03:19:52;;;;;;;1.80;1.67;;;13.20;99.90;;;;;;5021149;28;20438;-87
2022/06/28 03:22:18;;;;;;;5.03;1.70;;;13.20;99.90;;;;;;5022334;28;20038;-93
2022/06/28 03:24:44;;;;;;;11.70;1.63;;;13.30;99.90;;;;;;5019460;28;20617;-86
2022/06/28 03:27:10;;;;;;;1.50;1.40;;;13.30;99.90;;;;;;5022281;28;20041;-93
2022/06/28 03:29:35;;;;;;;1.77;1.30;;;13.30;99.90;;;;;;5020332;28;20103;-94
2022/06/28 03:32:01;;;;;;;1.45;1.35;;;13.20;99.90;;;;;;5019870;28;20037;-93
2022/06/28 03:34:26;;;;;;;0.90;0.90;;;13.20;99.90;;;;;;5020541;28;20037;-93
2022/06/28 03:36:52;;;;;;;3.05;1.30;;;13.20;99.90;;;;;;5019390;28;20527;-94
2022/06/28 03:39:18;;;;;;;2.35;2.10;;;13.20;99.90;;;;;;5020434;28;20055;-93
2022/06/28 03:41:43;;;;;;;2.50;1.50;;;13.20;99.90;;;;;;5019462;28;20072;-85
2022/06/28 03:44:09;;;;;;;1.85;1.30;;;13.20;99.90;;;;;;5021169;28;20045;-93
2022/06/28 03:46:35;;;;;;;3.97;1.75;;;13.20;99.90;;;;;;5022482;28;20038;-94
2022/06/28 03:49:00;;;;;;;2.10;1.75;;;13.30;99.90;;;;;;5021505;28;20052;-94
2022/06/28 03:51:26;;;;;;;1.08;0.98;;;13.30;99.90;;;;;;5022373;28;20140;-94
2022/06/28 03:53:52;;;;;;;3.40;1.45;;;13.20;99.90;;;;;;5021327;28;20038;-94
2022/06/28 03:56:17;;;;;;;1.73;1.63;;;13.30;99.90;;;;;;5020987;28;20503;-93
2022/06/28 03:58:43;;;;;;;2.47;1.48;;;13.30;99.90;;;;;;5021962;28;20037;-93
2022/06/28 04:01:08;;;;;;;3.83;1.58;;;13.30;99.90;;;;;;5022126;28;20385;-94
2022/06/28 04:03:35;;;;;;;1.38;1.27;;;13.30;99.90;;;;;;5021503;28;20069;-93
2022/06/28 04:06:01;;;;;;;2.05;1.50;;;13.40;99.90;;;;;;5020703;28;20037;-94
2022/06/28 04:08:27;;;;;;;2.15;1.20;;;13.30;99.90;;;;;;5021756;28;20042;-93
2022/06/28 04:13:38;;;;;;;2.40;1.55;;;13.40;99.90;;;;;;5016262;28;20770;-94
2022/06/28 04:16:04;;;;;;;1.75;1.55;;;13.40;99.90;;;;;;5021407;28;20045;-94
2022/06/28 04:18:30;;;;;;;2.13;1.80;;;13.40;99.90;;;;;;5022113;28;20558;-94
2022/06/28 04:20:56;;;;;;;2.45;1.45;;;13.50;99.90;;;;;;5021902;28;20041;-94
2022/06/28 04:23:21;;;;;;;1.38;1.20;;;13.50;99.90;;;;;;5021245;28;20079;-95
2022/06/28 04:25:47;;;;;;;3.63;1.83;;;13.50;99.90;;;;;;5020448;28;20447;-95
2022/06/28 04:28:13;;;;;;;3.47;1.60;;;13.60;99.90;;;;;;5023236;28;20049;-95
2022/06/28 04:30:38;;;;;;;8.15;4.50;;;13.60;99.90;;;;;;5021879;28;20399;-96
2022/06/28 04:33:04;;;;;;;2.67;2.08;;;13.60;99.90;;;;;;5021662;28;20090;-96
2022/06/28 04:35:29;;;;;;;1.80;1.45;;;13.70;99.90;;;;;;5021618;28;20411;-96
2022/06/28 04:37:55;;;;;;;1.98;1.55;;;13.60;99.90;;;;;;5026121;28;20041;-94
2022/06/28 04:40:20;;;;;;;6.38;2.08;;;13.70;99.90;;;;;;5027194;28;20033;-93
2022/06/28 04:42:46;;;;;;;1.67;1.38;;;13.60;99.90;;;;;;5025327;28;20095;-95
2022/06/28 04:45:11;;;;;;;19.17;9.48;;;13.70;99.90;;;;;;5022052;28;20741;-93
2022/06/28 04:47:37;;;;;;;8.88;4.45;;;13.70;99.90;;;;;;5022016;28;20041;-95
2022/06/28 04:50:03;;;;;;;2.90;1.83;;;13.70;99.90;;;;;;5021035;28;20060;-95
2022/06/28 04:52:29;;;;;;;2.70;1.83;;;13.80;99.90;;;;;;5021907;28;20550;-95
2022/06/28 04:54:54;;;;;;;1.75;1.35;;;13.80;99.90;;;;;;5018541;28;20053;-96
2022/06/28 04:57:20;;;;;;;1.25;1.05;;;13.80;99.90;;;;;;5020913;28;20049;-95
2022/06/28 04:59:45;;;;;;;3.45;1.90;;;13.80;99.90;;;;;;5020730;28;20064;-92
2022/06/28 05:02:11;;;;;;;5.45;2.80;;;13.90;99.90;;;;;;5022734;28;20045;-95
2022/06/28 05:04:36;;;;;;;9.35;6.88;;;14.00;99.90;;;;;;5021340;28;20049;-95
2022/06/28 05:07:02;;;;;;;5.70;3.28;;;14.00;99.90;;;;;;5022262;28;20863;-96
2022/06/28 05:09:28;;;;;;;4.00;2.08;;;14.00;99.90;;;;;;5021225;28;20048;-92
2022/06/28 05:11:53;;;;;;;2.45;2.00;;;14.10;99.90;;;;;;5020018;28;20085;-95
2022/06/28 05:14:19;;;;;;;9.43;1.95;;;14.10;99.90;;;;;;5020731;28;20378;-95
2022/06/28 05:16:45;;;;;;;2.58;1.75;;;14.20;99.90;;;;;;5024873;28;20087;-95
2022/06/28 05:19:11;;;;;;;8.27;1.92;;;14.20;99.90;;;;;;5024495;28;20056;-95
2022/06/28 05:21:37;;;;;;;6.68;2.42;;;14.30;99.90;;;;;;5025031;28;20061;-95
2022/06/28 05:24:04;;;;;;;5.97;2.33;;;14.30;99.90;;;;;;5025032;28;20052;-91
2022/06/28 05:26:30;;;;;;;4.78;2.35;;;14.40;99.90;;;;;;5024420;28;20041;-95
2022/06/28 05:28:55;;;;;;;3.88;2.00;;;14.40;99.90;;;;;;5023616;28;20048;-94
2022/06/28 05:31:21;;;;;;;14.48;3.72;;;14.50;99.90;;;;;;5024708;28;20029;-95
2022/06/28 05:33:46;;;;;;;7.20;2.20;;;14.50;99.90;;;;;;5023062;28;20067;-95
2022/06/28 05:36:13;;;;;;;5.13;2.15;;;14.60;99.90;;;;;;5024961;28;20122;-95
2022/06/28 05:38:41;;;;;;;4.90;2.47;;;14.60;99.90;;;;;;5024577;28;20038;-96
2022/06/28 05:41:08;;;;;;;4.35;2.40;;;14.70;99.90;;;;;;5022890;28;20050;-94
2022/06/28 05:43:35;;;;;;;5.93;3.03;;;14.80;99.90;;;;;;5023539;28;20045;-93
2022/06/28 05:46:00;;;;;;;9.18;2.22;;;14.80;99.90;;;;;;5017292;28;20817;-93
2022/06/28 05:48:26;;;;;;;5.82;2.10;;;14.80;99.90;;;;;;5007727;28;20041;-93
2022/06/28 05:50:52;;;;;;;4.57;2.22;;;14.90;99.90;;;;;;5012052;28;20172;-95
2022/06/28 05:53:17;;;;;;;4.68;2.00;;;14.90;99.90;;;;;;5018910;28;21091;-95
2022/06/28 05:55:43;;;;;;;6.50;2.33;;;15.00;99.90;;;;;;5020103;28;20044;-94
2022/06/28 05:58:09;;;;;;;3.75;2.00;;;15.00;99.90;;;;;;4993586;28;20057;-89
2022/06/28 06:00:37;;;;;;;8.23;2.03;;;15.10;99.90;;;;;;5015918;28;20046;-93
2022/06/28 06:03:03;;;;;;;5.30;2.55;;;15.10;99.90;;;;;;5023399;28;20134;-93
2022/06/28 06:05:29;;;;;;;9.00;3.15;;;15.20;99.90;;;;;;5017606;28;20479;-94
2022/06/28 06:07:54;;;;;;;6.97;2.15;;;15.20;99.90;;;;;;5004348;28;20099;-95
2022/06/28 06:10:20;;;;;;;3.67;2.45;;;15.20;99.90;;;;;;5018076;28;20373;-93
2022/06/28 06:12:46;;;;;;;3.28;1.92;;;15.30;99.90;;;;;;5015988;28;20099;-94
2022/06/28 06:15:11;;;;;;;5.22;1.88;;;15.30;99.90;;;;;;5018924;28;20045;-94
2022/06/28 06:17:37;;;;;;;5.30;2.92;;;15.30;99.90;;;;;;5015171;28;20066;-94
2022/06/28 06:20:04;;;;;;;8.05;2.70;;;15.40;99.90;;;;;;5011734;28;20152;-96
2022/06/28 06:22:30;;;;;;;2.40;1.70;;;15.50;99.90;;;;;;5018313;28;20412;-94
2022/06/28 06:24:56;;;;;;;3.15;1.67;;;15.50;99.90;;;;;;5010342;28;20047;-93
2022/06/28 06:27:22;;;;;;;4.85;1.73;;;15.50;99.90;;;;;;5010755;28;20037;-93
2022/06/28 06:29:47;;;;;;;9.20;2.13;;;15.50;99.90;;;;;;5015880;28;20038;-94
2022/06/28 06:32:13;;;;;;;3.40;1.33;;;15.60;99.90;;;;;;5016154;28;20127;-92
2022/06/28 06:34:39;;;;;;;2.25;1.20;;;15.70;99.90;;;;;;5022982;28;20061;-93
2022/06/28 06:37:05;;;;;;;4.53;2.30;;;15.70;99.90;;;;;;5022570;28;20077;-92
2022/06/28 06:39:30;;;;;;;10.30;2.03;;;15.70;99.90;;;;;;5020714;28;20134;-93
2022/06/28 06:41:56;;;;;;;10.65;2.42;;;15.80;99.90;;;;;;5021958;28;20077;-93
2022/06/28 06:44:21;;;;;;;7.07;2.20;;;15.80;99.90;;;;;;5006575;28;20046;-91
2022/06/28 06:46:47;;;;;;;4.85;2.10;;;15.80;99.90;;;;;;5019038;28;20033;-92
2022/06/28 06:49:14;;;;;;;8.68;2.35;;;15.90;99.90;;;;;;5022126;28;20387;-92
2022/06/28 06:51:44;;;;;;;3.08;1.23;;;15.90;99.90;;;;;;5020894;28;20050;-95
2022/06/28 06:54:11;;;;;;;13.13;2.10;;;16.00;99.90;;;;;;5019977;28;20503;-93
2022/06/28 06:56:38;;;;;;;6.97;2.03;;;16.00;99.90;;;;;;5021937;28;20040;-94
2022/06/28 06:59:04;;;;;;;6.15;1.48;;;16.20;99.90;;;;;;5020872;28;20582;-93
2022/06/28 07:01:32;;;;;;;3.47;1.33;;;16.20;99.90;;;;;;5021384;28;20065;-92
2022/06/28 07:03:58;;;;;;;2.35;1.25;;;16.20;99.90;;;;;;5012202;28;20045;-92
2022/06/28 07:06:24;;;;;;;9.93;2.42;;;16.40;99.90;;;;;;5017318;28;20052;-91
2022/06/28 07:08:49;;;;;;;5.00;2.15;;;16.40;99.90;;;;;;5017651;28;20046;-91
2022/06/28 07:11:15;;;;;;;3.10;1.38;;;16.40;99.90;;;;;;5012419;28;20038;-92
2022/06/28 07:13:41;;;;;;;4.72;1.45;;;16.50;99.90;;;;;;5011185;28;20548;-92
2022/06/28 07:16:06;;;;;;;2.33;1.55;;;16.50;99.90;;;;;;5017672;28;20037;-93
2022/06/28 07:18:32;;;;;;;1.98;1.40;;;16.50;99.90;;;;;;5006807;28;20046;-84
2022/06/28 07:20:58;;;;;;;5.22;2.03;;;16.60;99.90;;;;;;5007713;28;20033;-93
2022/06/28 07:23:24;;;;;;;3.85;1.00;;;16.60;99.90;;;;;;5020315;28;20037;-93
2022/06/28 07:25:50;;;;;;;1.48;1.23;;;16.70;99.90;;;;;;5020446;28;20492;-90
2022/06/28 07:28:16;;;;;;;2.33;1.55;;;16.70;99.90;;;;;;5021142;28;20052;-92
2022/06/28 07:30:42;;;;;;;7.07;2.60;;;16.70;99.90;;;;;;5021726;28;20068;-93
2022/06/28 07:33:09;;;;;;;2.42;1.52;;;16.70;99.90;;;;;;5016449;28;20076;-93
2022/06/28 07:35:35;;;;;;;2.75;1.85;;;16.70;99.90;;;;;;5003517;28;20071;-91
2022/06/28 07:38:01;;;;;;;1.80;1.42;;;16.80;99.90;;;;;;5001337;28;20034;-91
2022/06/28 07:40:27;;;;;;;0.85;0.85;;;16.80;99.90;;;;;;5000561;28;20046;-90
2022/06/28 07:42:53;;;;;;;4.18;1.63;;;16.80;99.90;;;;;;5000178;28;20126;-92
2022/06/28 07:45:19;;;;;;;2.10;1.40;;;16.70;99.90;;;;;;5001711;28;20054;-92
2022/06/28 07:47:47;;;;;;;2.53;1.35;;;16.70;99.90;;;;;;4999933;28;20038;-92
2022/06/28 07:53:05;;;;;;;1.58;1.20;;;16.80;99.90;;;;;;5001282;28;20049;-90
2022/06/28 07:55:31;;;;;;;1.15;0.93;;;16.80;99.90;;;;;;4982631;28;20141;-90
2022/06/28 07:57:58;;;;;;;0.82;0.80;;;16.90;99.90;;;;;;5000759;28;20641;-90
2022/06/28 08:00:23;;;;;;;2.97;1.15;;;16.90;99.90;;;;;;5001187;28;20042;-89
2022/06/28 08:02:49;;;;;;;2.08;1.33;;;16.90;99.90;;;;;;5000431;28;20061;-89
2022/06/28 08:05:15;;;;;;;1.55;1.45;;;17.00;99.90;;;;;;5001452;28;20125;-91
2022/06/28 08:07:41;;;;;;;1.35;1.25;;;17.00;99.90;;;;;;5001222;28;20042;-91
2022/06/28 08:10:08;;;;;;;1.08;1.00;;;16.90;99.90;;;;;;5010483;28;20401;-91
2022/06/28 08:12:33;;;;;;;0.73;0.73;;;16.90;99.90;;;;;;5018520;28;20441;-92
2022/06/28 08:14:59;;;;;;;2.80;1.02;;;16.90;99.90;;;;;;5019241;28;20057;-90
2022/06/28 08:17:25;;;;;;;1.75;0.73;;;17.00;99.90;;;;;;5021573;28;20042;-91
2022/06/28 08:19:50;;;;;;;2.42;0.88;;;17.00;99.90;;;;;;5019777;28;20080;-91
2022/06/28 08:22:16;;;;;;;1.17;0.90;;;17.00;99.90;;;;;;5020444;28;20121;-93
2022/06/28 08:24:42;;;;;;;1.05;0.70;;;17.10;99.90;;;;;;5020481;28;20693;-92
2022/06/28 08:27:08;;;;;;;1.23;0.95;;;17.10;99.90;;;;;;5020456;28;20090;-89
2022/06/28 08:29:34;;;;;;;1.60;1.17;;;17.20;99.90;;;;;;5020230;28;20045;-90
2022/06/28 08:32:01;;;;;;;2.75;1.15;;;17.20;99.90;;;;;;5019848;28;20124;-89
2022/06/28 08:34:27;;;;;;;0.98;0.82;;;17.20;99.90;;;;;;5018903;28;20041;-89
2022/06/28 08:36:53;;;;;;;3.72;1.55;;;17.20;99.90;;;;;;5019159;28;20503;-90
2022/06/28 08:39:18;;;;;;;2.58;0.95;;;17.20;99.90;;;;;;5017888;28;20053;-90
2022/06/28 08:41:47;;;;;;;1.75;1.42;;;17.30;99.90;;;;;;5018461;28;20038;-89
2022/06/28 08:44:14;;;;;;;1.63;0.75;;;17.30;99.90;;;;;;5019824;28;20069;-85
2022/06/28 08:46:40;;;;;;;1.27;1.10;;;17.30;99.90;;;;;;5021100;28;20074;-86
2022/06/28 08:49:15;;;;;;;0.60;0.57;;;17.30;99.90;;;;;;5036315;28;20077;-83
2022/06/28 08:51:42;;;;;;;1.48;0.80;;;17.40;99.90;;;;;;5025735;28;20049;-83
2022/06/28 08:54:08;;;;;;;1.55;1.02;;;17.40;99.90;;;;;;5030115;28;20132;-83
2022/06/28 08:56:38;;;;;;;2.15;1.27;;;17.50;99.90;;;;;;5042141;28;20759;-83
2022/06/28 08:59:06;;;;;;;3.70;1.15;;;17.50;99.90;;;;;;5041198;28;20313;-86
2022/06/28 09:01:31;;;;;;;2.65;0.73;;;17.50;99.90;;;;;;5041806;28;20063;-86
2022/06/28 09:04:00;;;;;;;1.38;1.25;;;17.50;99.90;;;;;;5042088;28;20049;-85
2022/06/28 09:06:25;;;;;;;1.23;0.77;;;17.60;99.90;;;;;;5042732;28;20064;-86
2022/06/28 09:08:51;;;;;;;2.35;1.02;;;17.50;99.90;;;;;;5041663;28;20041;-87
2022/06/28 09:11:17;;;;;;;2.15;1.30;;;17.60;99.90;;;;;;5042044;28;20237;-85
2022/06/28 09:13:42;;;;;;;2.58;1.20;;;17.50;99.90;;;;;;5021968;28;20870;-85
2022/06/28 09:16:08;;;;;;;4.00;1.05;;;17.60;99.90;;;;;;5021925;28;20511;-86
2022/06/28 09:18:37;;;;;;;2.40;1.20;;;17.60;99.90;;;;;;5022930;28;20037;-86
2022/06/28 09:21:08;;;;;;;1.70;0.70;;;17.60;99.90;;;;;;5021317;28;20049;-86
2022/06/28 09:23:40;;;;;;;6.95;0.95;;;17.60;99.90;;;;;;5020671;28;20112;-79
2022/06/28 09:26:18;;;;;;;0.60;0.60;;;17.70;99.90;;;;;;5021512;28;20046;-86
2022/06/28 09:28:49;;;;;;;2.05;1.33;;;17.70;99.90;;;;;;5021439;28;20168;-87
2022/06/28 09:31:23;;;;;;;2.95;1.00;;;17.80;99.90;;;;;;5021336;28;20557;-86
2022/06/28 09:34:05;;;;;;;4.18;0.60;;;17.80;99.90;;;;;;5020254;28;20482;-85
2022/06/28 09:36:39;;;;;;;4.38;1.05;;;17.80;99.90;;;;;;5021881;28;20045;-86
2022/06/28 09:39:17;;;;;;;3.42;0.85;;;17.90;99.90;;;;;;5020844;28;20064;-87
2022/06/28 09:41:47;;;;;;;2.90;1.35;;;17.90;99.90;;;;;;5022174;28;20491;-88
2022/06/28 09:44:15;;;;;;;1.48;1.30;;;17.90;99.90;;;;;;5020511;28;20033;-87
2022/06/28 09:46:40;;;;;;;2.97;1.02;;;17.90;99.90;;;;;;5022582;28;20092;-86
2022/06/28 09:49:08;;;;;;;1.38;0.80;;;17.90;99.90;;;;;;5021357;28;20042;-88
2022/06/28 09:51:36;;;;;;;7.97;1.10;;;17.80;99.90;;;;;;5021636;28;20041;-87
2022/06/28 09:54:04;;;;;;;0.50;0.50;;;17.90;99.90;;;;;;5019685;28;20085;-86
2022/06/28 09:56:39;;;;;;;1.92;1.13;;;17.90;99.90;;;;;;5019622;28;20041;-88
2022/06/28 09:59:06;;;;;;;4.30;1.15;;;17.90;99.90;;;;;;5020644;28;20042;-86
2022/06/28 10:01:33;;;;;;;1.67;0.88;;;17.90;99.90;;;;;;5021017;28;20576;-87
2022/06/28 10:03:58;;;;;;;2.03;1.35;;;18.00;99.90;;;;;;5021198;28;20312;-87
2022/06/28 10:06:25;;;;;;;2.22;1.23;;;18.00;99.90;;;;;;5021408;28;20504;-87
2022/06/28 10:08:51;;;;;;;1.60;0.80;;;18.00;99.90;;;;;;5019971;28;20092;-88
2022/06/28 10:11:17;;;;;;;2.90;1.00;;;18.00;99.90;;;;;;5021020;28;20069;-87
2022/06/28 10:16:32;;;;;;;1.05;0.95;;;18.10;99.90;;;;;;5021282;28;20121;-88
2022/06/28 10:19:00;;;;;;;2.00;1.08;;;18.10;99.90;;;;;;5021077;28;20573;-86
2022/06/28 10:21:46;;;;;;;2.15;1.08;;;18.10;99.90;;;;;;5021098;28;20045;-87
2022/06/28 10:24:13;;;;;;;2.00;0.80;;;18.10;99.90;;;;;;5020348;28;20500;-87
2022/06/28 10:26:42;;;;;;;1.35;0.82;;;18.10;99.90;;;;;;5019358;28;20057;-86
2022/06/28 10:29:09;;;;;;;3.90;1.13;;;18.00;99.90;;;;;;5024693;28;20053;-91
2022/06/28 10:31:35;;;;;;;3.85;1.20;;;18.10;99.90;;;;;;5018842;28;20042;-90
2022/06/28 10:34:07;;;;;;;0.68;0.60;;;18.10;99.90;;;;;;5013577;28;20053;-92
2022/06/28 10:36:52;;;;;;;4.75;1.20;;;18.20;99.90;;;;;;5018820;28;20120;-91
2022/06/28 10:39:31;;;;;;;2.85;1.55;;;18.20;99.90;;;;;;5019636;28;20048;-93
2022/06/28 10:42:00;;;;;;;3.50;1.23;;;18.20;99.90;;;;;;5020567;28;20049;-95
2022/06/28 10:44:32;;;;;;;2.28;0.75;;;18.30;99.90;;;;;;5021809;28;20049;-91
2022/06/28 10:47:00;;;;;;;2.70;1.55;;;18.30;99.90;;;;;;5004291;28;20049;-90
2022/06/28 10:49:26;;;;;;;3.08;1.02;;;18.40;99.90;;;;;;5021746;28;20041;-92
2022/06/28 10:52:08;;;;;;;2.42;1.15;;;18.40;99.90;;;;;;5020500;28;20049;-91
2022/06/28 10:54:34;;;;;;;1.70;1.38;;;18.40;99.90;;;;;;5020920;28;20060;-87
2022/06/28 10:57:00;;;;;;;3.40;2.25;;;18.40;99.90;;;;;;5015092;28;20407;-85
2022/06/28 10:59:37;;;;;;;2.05;1.00;;;18.50;99.90;;;;;;5018943;28;20075;-90
2022/06/28 11:02:03;;;;;;;1.65;1.55;;;18.60;99.90;;;;;;5019715;28;20061;-84
2022/06/28 11:04:30;;;;;;;3.42;1.23;;;18.60;99.90;;;;;;5019141;28;20550;-80
2022/06/28 11:07:33;;;;;;;3.03;1.20;;;18.60;99.90;;;;;;5015976;28;20037;-82
2022/06/28 11:10:04;;;;;;;3.50;1.40;;;18.60;99.90;;;;;;4973750;28;20077;-83
2022/06/28 11:12:35;;;;;;;2.05;1.02;;;18.60;99.90;;;;;;5010042;28;20049;-84
2022/06/28 11:15:03;;;;;;;1.00;1.00;;;18.60;99.90;;;;;;5018700;28;20106;-91
2022/06/28 11:17:33;;;;;;;2.45;0.98;;;18.70;99.90;;;;;;5002107;28;20050;-92
2022/06/28 11:20:13;;;;;;;4.38;1.50;;;18.80;99.90;;;;;;5019696;28;20408;-89
2022/06/28 11:22:45;;;;;;;6.20;1.30;;;18.80;99.90;;;;;;5015146;28;20049;-89
2022/06/28 11:25:15;;;;;;;1.60;1.38;;;18.80;99.90;;;;;;5019840;28;20515;-89
2022/06/28 11:27:58;;;;;;;2.50;1.15;;;18.90;99.90;;;;;;5015718;28;20166;-92
2022/06/28 11:30:27;;;;;;;1.70;1.55;;;19.00;99.90;;;;;;5015845;28;20040;-90
2022/06/28 11:32:59;;;;;;;1.05;0.88;;;19.10;99.90;;;;;;5019106;28;20045;-88
2022/06/28 11:35:31;;;;;;;1.50;1.23;;;19.10;99.90;;;;;;5017433;28;20052;-92
2022/06/28 11:38:05;;;;;;;1.60;0.70;;;19.10;99.90;;;;;;5016839;28;20055;-90
2022/06/28 11:40:44;;;;;;;2.67;0.75;;;19.20;99.90;;;;;;5016048;28;20127;-94
2022/06/28 11:43:12;;;;;;;0.60;0.60;;;19.20;99.90;;;;;;5020180;28;20061;-86
2022/06/28 11:45:41;;;;;;;1.55;0.63;;;19.20;99.90;;;;;;5019736;28;20045;-86
2022/06/28 11:48:12;;;;;;;3.30;1.23;;;19.30;99.90;;;;;;5018735;28;20045;-85
2022/06/28 11:50:52;;;;;;;2.28;1.45;;;19.30;99.90;;;;;;5015541;28;20045;-85
2022/06/28 11:53:19;;;;;;;1.58;1.10;;;19.30;99.90;;;;;;5014979;28;20037;-85
2022/06/28 11:55:49;;;;;;;0.80;0.80;;;19.30;99.90;;;;;;5018361;28;20123;-85
2022/06/28 11:58:29;;;;;;;0.77;0.73;;;19.30;99.90;;;;;;5018945;28;20072;-86
2022/06/28 12:01:14;;;;;;;0.60;0.60;;;19.40;99.90;;;;;;5018415;28;20041;-87
2022/06/28 12:03:43;;;;;;;0.80;0.80;;;19.40;99.90;;;;;;5001118;28;20087;-86
2022/06/28 12:06:33;;;;;;;1.77;0.90;;;19.40;99.90;;;;;;5017515;28;20045;-86
2022/06/28 12:09:04;;;;;;;6.93;0.90;;;19.40;99.90;;;;;;5014122;28;20096;-87
2022/06/28 12:11:44;;;;;;;0.65;0.65;;;19.40;99.90;;;;;;5019492;28;20038;-86
2022/06/28 12:14:21;;;;;;;1.55;1.00;;;19.40;99.90;;;;;;5019229;28;20054;-86
2022/06/28 12:17:05;;;;;;;1.25;0.70;;;19.40;99.90;;;;;;5016720;28;20107;-85
2022/06/28 12:19:33;;;;;;;0.68;0.55;;;19.40;99.90;;;;;;5019390;28;20032;-85
2022/06/28 12:22:01;;;;;;;0.70;0.70;;;19.40;99.90;;;;;;5021990;28;20060;-88
2022/06/28 12:24:44;;;;;;;0.90;0.73;;;19.40;99.90;;;;;;5021176;28;20047;-86
2022/06/28 12:27:12;;;;;;;0.98;0.75;;;19.40;99.90;;;;;;5023380;28;20488;-86
2022/06/28 12:29:38;;;;;;;3.65;1.45;;;19.50;99.90;;;;;;5023366;28;20514;-85
2022/06/28 12:32:04;;;;;;;2.25;0.88;;;19.50;99.90;;;;;;5021130;28;20269;-85
2022/06/28 12:34:33;;;;;;;6.13;0.90;;;19.50;99.90;;;;;;5021949;28;20113;-86
2022/06/28 12:36:59;;;;;;;0.73;0.65;;;19.50;99.90;;;;;;5021892;28;20665;-88
2022/06/28 12:39:25;;;;;;;2.65;0.95;;;19.50;99.90;;;;;;5021364;28;20112;-85
2022/06/28 12:41:51;;;;;;;1.48;1.15;;;19.50;99.90;;;;;;5022126;28;20034;-86
2022/06/28 12:44:17;;;;;;;6.40;0.93;;;19.60;99.90;;;;;;5022291;28;20539;-85
2022/06/28 12:46:43;;;;;;;0.68;0.68;;;19.50;99.90;;;;;;5021207;28;20041;-85
2022/06/28 12:49:08;;;;;;;2.35;0.90;;;19.40;99.90;;;;;;5022369;28;20146;-86
2022/06/28 12:51:37;;;;;;;0.85;0.70;;;19.50;99.90;;;;;;5021929;28;20056;-86
2022/06/28 12:54:03;;;;;;;1.48;1.13;;;19.60;99.90;;;;;;5018350;28;20041;-86
2022/06/28 12:56:28;;;;;;;0.70;0.70;;;19.70;99.90;;;;;;5021197;28;20049;-86
2022/06/28 12:58:58;;;;;;;1.25;1.10;;;19.70;99.90;;;;;;5021305;28;20041;-86
2022/06/28 13:01:24;;;;;;;1.80;1.23;;;19.70;99.90;;;;;;5021827;28;20511;-84